Time;durP1;ratioP1;P1;durP2;ratioP2;P2;SDS_P1;SDS_P2;PMS_P1;PMS_P2;Temp;Humidity;BMP_temperature;BMP_pressure;BME280_temperature;BME280_humidity;BME280_pressure;Samples;Min_cycle;Max_cycle;Signal;HPM_P1;HPM_P2
2023/12/25 00:01:18;;;;;;;14.00;3.00;;;;;;;;;;5051294;27;98313;-74
2023/12/25 00:03:45;;;;;;;11.85;3.38;;;;;;;;;;5049670;27;98725;-74
2023/12/25 00:06:17;;;;;;;10.87;2.03;;;;;;;;;;5050184;27;98825;-74
2023/12/25 00:08:43;;;;;;;4.07;2.08;;;;;;;;;;5050469;27;98260;-73
2023/12/25 00:11:10;;;;;;;12.40;2.25;;;;;;;;;;5049361;27;98791;-74
2023/12/25 00:13:37;;;;;;;10.02;2.38;;;;;;;;;;5053284;27;99431;-73
2023/12/25 00:16:03;;;;;;;9.93;2.85;;;;;;;;;;5050837;27;99464;-73
2023/12/25 00:18:30;;;;;;;12.85;3.33;;;;;;;;;;5049970;27;100017;-73
2023/12/25 00:20:57;;;;;;;8.70;2.83;;;;;;;;;;5050238;27;98602;-73
2023/12/25 00:23:23;;;;;;;15.43;3.33;;;;;;;;;;5050040;27;98678;-73
2023/12/25 00:25:49;;;;;;;5.45;2.47;;;;;;;;;;5050077;27;100100;-72
2023/12/25 00:28:16;;;;;;;14.38;2.22;;;;;;;;;;5050010;27;98324;-74
2023/12/25 00:30:43;;;;;;;10.45;2.50;;;;;;;;;;5048385;27;101015;-73
2023/12/25 00:33:09;;;;;;;9.15;2.80;;;;;;;;;;5050507;27;98952;-73
2023/12/25 00:35:36;;;;;;;8.25;2.47;;;;;;;;;;5053530;27;98292;-73
2023/12/25 00:38:02;;;;;;;12.27;2.47;;;;;;;;;;5049875;27;98961;-74
2023/12/25 00:40:29;;;;;;;10.00;2.38;;;;;;;;;;5049106;27;98256;-74
2023/12/25 00:42:55;;;;;;;5.35;1.63;;;;;;;;;;5051000;27;98592;-74
2023/12/25 00:45:22;;;;;;;5.13;2.03;;;;;;;;;;5048042;27;100119;-73
2023/12/25 00:47:48;;;;;;;6.32;2.05;;;;;;;;;;5050305;27;98319;-73
2023/12/25 00:50:15;;;;;;;5.60;1.50;;;;;;;;;;5050875;27;99188;-73
2023/12/25 00:52:42;;;;;;;5.43;1.88;;;;;;;;;;5049244;27;98802;-73
2023/12/25 00:55:09;;;;;;;5.15;1.63;;;;;;;;;;5051024;27;98265;-74
2023/12/25 00:57:35;;;;;;;3.13;1.52;;;;;;;;;;5057567;27;98567;-74
2023/12/25 01:00:02;;;;;;;5.07;1.63;;;;;;;;;;5053658;27;98367;-73
2023/12/25 01:02:29;;;;;;;6.03;1.70;;;;;;;;;;5054432;27;98310;-74
2023/12/25 01:04:55;;;;;;;8.68;1.65;;;;;;;;;;5053296;27;99844;-74
2023/12/25 01:07:22;;;;;;;6.90;2.05;;;;;;;;;;5053003;27;98193;-74
2023/12/25 01:09:48;;;;;;;8.52;2.50;;;;;;;;;;5052991;27;99156;-73
2023/12/25 01:12:15;;;;;;;7.93;2.17;;;;;;;;;;5053473;27;101189;-73
2023/12/25 01:14:43;;;;;;;12.55;2.60;;;;;;;;;;5051402;27;98257;-72
2023/12/25 01:17:10;;;;;;;14.32;2.38;;;;;;;;;;5057111;27;98377;-73
2023/12/25 01:19:37;;;;;;;8.63;2.63;;;;;;;;;;5052935;27;98606;-73
2023/12/25 01:22:03;;;;;;;14.27;2.45;;;;;;;;;;5052550;27;98954;-73
2023/12/25 01:24:30;;;;;;;12.35;3.05;;;;;;;;;;5051206;27;99308;-72
2023/12/25 01:26:56;;;;;;;16.02;2.80;;;;;;;;;;5051876;27;98500;-73
2023/12/25 01:29:23;;;;;;;12.50;2.45;;;;;;;;;;5053710;27;98341;-73
2023/12/25 01:31:49;;;;;;;13.65;2.55;;;;;;;;;;5053459;27;98830;-73
2023/12/25 01:34:16;;;;;;;5.63;2.03;;;;;;;;;;5052947;27;98207;-72
2023/12/25 01:36:42;;;;;;;14.15;2.70;;;;;;;;;;5053544;27;98249;-73
2023/12/25 01:39:09;;;;;;;12.45;2.20;;;;;;;;;;5056004;27;99898;-74
2023/12/25 01:41:36;;;;;;;3.75;2.10;;;;;;;;;;5051406;27;100102;-73
2023/12/25 01:44:02;;;;;;;11.35;2.65;;;;;;;;;;5052785;27;98786;-73
2023/12/25 01:46:38;;;;;;;12.80;2.40;;;;;;;;;;5052936;27;98106;-73
2023/12/25 01:49:07;;;;;;;8.57;2.35;;;;;;;;;;5050911;27;100637;-73
2023/12/25 01:51:34;;;;;;;19.83;3.50;;;;;;;;;;5052391;27;98863;-73
2023/12/25 01:54:04;;;;;;;4.70;2.13;;;;;;;;;;5053350;27;98196;-73
2023/12/25 01:56:31;;;;;;;13.60;2.88;;;;;;;;;;5051066;27;101097;-72
2023/12/25 01:58:58;;;;;;;11.95;4.97;;;;;;;;;;5051440;27;98884;-73
2023/12/25 02:01:25;;;;;;;9.38;2.65;;;;;;;;;;5055129;27;98378;-73
2023/12/25 02:03:52;;;;;;;4.88;2.50;;;;;;;;;;5051607;27;99950;-72
2023/12/25 02:06:19;;;;;;;8.70;2.30;;;;;;;;;;5052232;27;98200;-73
2023/12/25 02:08:45;;;;;;;5.80;2.05;;;;;;;;;;5050892;27;99291;-72
2023/12/25 02:11:12;;;;;;;6.35;2.55;;;;;;;;;;5050352;27;100309;-74
2023/12/25 02:13:38;;;;;;;8.70;2.00;;;;;;;;;;5052445;27;98285;-72
2023/12/25 02:16:05;;;;;;;4.72;1.55;;;;;;;;;;5052159;27;98571;-73
2023/12/25 02:18:31;;;;;;;6.70;1.50;;;;;;;;;;5050958;27;101621;-73
2023/12/25 02:20:58;;;;;;;3.95;1.50;;;;;;;;;;5051736;27;98347;-73
2023/12/25 02:23:25;;;;;;;4.65;1.60;;;;;;;;;;5055007;27;98315;-73
2023/12/25 02:25:54;;;;;;;2.55;1.25;;;;;;;;;;5050638;27;98311;-73
2023/12/25 02:28:20;;;;;;;7.30;1.80;;;;;;;;;;5051034;27;99903;-73
2023/12/25 02:30:46;;;;;;;4.22;1.45;;;;;;;;;;5050264;27;101223;-73
2023/12/25 02:33:13;;;;;;;7.35;2.22;;;;;;;;;;5052398;27;98266;-73
2023/12/25 02:35:40;;;;;;;5.43;2.03;;;;;;;;;;5052444;27;98239;-73
2023/12/25 02:38:06;;;;;;;8.25;2.60;;;;;;;;;;5050956;27;98658;-74
2023/12/25 02:40:35;;;;;;;7.68;2.25;;;;;;;;;;5050463;27;98260;-74
2023/12/25 02:43:02;;;;;;;17.13;3.20;;;;;;;;;;5052879;27;98886;-74
2023/12/25 02:45:28;;;;;;;11.35;3.15;;;;;;;;;;5054540;27;98881;-74
2023/12/25 02:47:55;;;;;;;7.82;2.72;;;;;;;;;;5051282;27;98522;-75
2023/12/25 02:50:22;;;;;;;6.80;2.03;;;;;;;;;;5052186;27;98684;-74
2023/12/25 02:52:48;;;;;;;9.27;2.10;;;;;;;;;;5051370;27;98416;-74
2023/12/25 02:55:15;;;;;;;7.30;1.98;;;;;;;;;;5052643;27;98165;-74
2023/12/25 02:57:41;;;;;;;13.05;3.00;;;;;;;;;;5050368;27;100254;-73
2023/12/25 03:00:08;;;;;;;21.45;3.55;;;;;;;;;;5052080;27;99034;-74
2023/12/25 03:02:34;;;;;;;8.15;2.03;;;;;;;;;;5052000;27;98701;-74
2023/12/25 03:05:01;;;;;;;14.70;2.50;;;;;;;;;;5051468;27;98804;-74
2023/12/25 03:07:28;;;;;;;18.63;3.30;;;;;;;;;;5055211;27;99058;-74
2023/12/25 03:09:54;;;;;;;9.07;2.85;;;;;;;;;;5051665;27;98758;-74
2023/12/25 03:12:22;;;;;;;8.95;2.80;;;;;;;;;;5049610;27;98276;-74
2023/12/25 03:14:49;;;;;;;19.98;2.75;;;;;;;;;;5051802;27;98383;-74
2023/12/25 03:17:15;;;;;;;15.75;3.28;;;;;;;;;;5051256;27;98805;-73
2023/12/25 03:19:42;;;;;;;13.35;2.55;;;;;;;;;;5051344;27;98485;-74
2023/12/25 03:22:08;;;;;;;10.93;3.22;;;;;;;;;;5052058;27;98678;-73
2023/12/25 03:24:35;;;;;;;11.98;2.90;;;;;;;;;;5049448;27;100069;-73
2023/12/25 03:27:03;;;;;;;14.57;2.50;;;;;;;;;;5054119;27;98129;-73
2023/12/25 03:29:29;;;;;;;8.43;2.03;;;;;;;;;;5051381;27;98948;-73
2023/12/25 03:31:56;;;;;;;15.85;3.63;;;;;;;;;;5051540;27;98265;-73
2023/12/25 03:34:22;;;;;;;14.38;2.75;;;;;;;;;;5049027;27;100328;-73
2023/12/25 03:36:49;;;;;;;14.60;2.30;;;;;;;;;;5050664;27;100059;-72
2023/12/25 03:39:15;;;;;;;10.65;2.47;;;;;;;;;;5051352;27;98145;-73
2023/12/25 03:41:42;;;;;;;15.90;2.65;;;;;;;;;;5048999;27;99503;-74
2023/12/25 03:44:08;;;;;;;8.77;2.15;;;;;;;;;;5051132;27;98649;-72
2023/12/25 03:46:35;;;;;;;10.85;2.33;;;;;;;;;;5049731;27;98373;-72
2023/12/25 03:49:01;;;;;;;19.85;3.42;;;;;;;;;;5052276;27;99496;-75
2023/12/25 03:51:28;;;;;;;9.27;2.40;;;;;;;;;;5051377;27;98216;-74
2023/12/25 03:53:55;;;;;;;18.77;4.15;;;;;;;;;;5051110;27;98756;-73
2023/12/25 03:56:23;;;;;;;12.30;2.42;;;;;;;;;;5047804;27;99208;-73
2023/12/25 03:58:49;;;;;;;11.95;2.28;;;;;;;;;;5051005;27;98249;-74
2023/12/25 04:01:16;;;;;;;12.48;3.10;;;;;;;;;;5049342;27;99689;-73
2023/12/25 04:03:42;;;;;;;8.73;2.50;;;;;;;;;;5048330;27;100961;-72
2023/12/25 04:06:09;;;;;;;6.47;2.55;;;;;;;;;;5051254;27;98256;-72
2023/12/25 04:08:36;;;;;;;15.27;3.80;;;;;;;;;;5049747;27;98582;-73
2023/12/25 04:11:02;;;;;;;7.90;2.45;;;;;;;;;;5053794;27;99303;-74
2023/12/25 04:13:29;;;;;;;20.20;4.18;;;;;;;;;;5051118;27;98393;-73
2023/12/25 04:15:58;;;;;;;12.35;3.08;;;;;;;;;;5047845;27;99198;-72
2023/12/25 04:18:24;;;;;;;11.75;2.70;;;;;;;;;;5049775;27;98342;-72
2023/12/25 04:20:51;;;;;;;14.98;3.28;;;;;;;;;;5050110;27;99755;-72
2023/12/25 04:23:17;;;;;;;11.88;2.95;;;;;;;;;;5047803;27;99705;-73
2023/12/25 06:11:35;;;;;;;10.70;2.10;;;;;;;;;;5062950;27;1616697;-81
2023/12/25 06:14:03;;;;;;;7.35;2.13;;;;;;;;;;5087193;27;100166;-81
2023/12/25 06:16:30;;;;;;;5.70;1.30;;;;;;;;;;5087718;27;98180;-81
2023/12/25 06:18:56;;;;;;;3.65;1.50;;;;;;;;;;5085617;27;98297;-81
2023/12/25 06:21:23;;;;;;;6.57;1.42;;;;;;;;;;5087274;27;99977;-81
2023/12/25 06:23:49;;;;;;;9.25;1.73;;;;;;;;;;5087445;27;98327;-81
2023/12/25 06:26:16;;;;;;;3.42;1.75;;;;;;;;;;5087503;27;99818;-82
2023/12/25 06:28:42;;;;;;;6.75;1.38;;;;;;;;;;5087342;27;100044;-82
2023/12/25 06:31:09;;;;;;;4.80;1.20;;;;;;;;;;5089839;27;98206;-81
2023/12/25 06:33:35;;;;;;;6.60;1.75;;;;;;;;;;5086911;27;98696;-81
2023/12/25 06:36:02;;;;;;;5.50;2.25;;;;;;;;;;5087267;27;98047;-81
2023/12/25 06:38:29;;;;;;;3.72;1.45;;;;;;;;;;5086455;27;98245;-81
2023/12/25 06:40:55;;;;;;;4.80;1.38;;;;;;;;;;5087116;27;100336;-81
2023/12/25 06:43:21;;;;;;;2.30;1.25;;;;;;;;;;5087637;27;98231;-80
2023/12/25 06:45:48;;;;;;;4.32;1.45;;;;;;;;;;5086786;27;99248;-80
2023/12/25 06:48:14;;;;;;;4.85;1.17;;;;;;;;;;5086453;27;99213;-80
2023/12/25 06:50:41;;;;;;;2.47;1.23;;;;;;;;;;5087565;27;98473;-80
2023/12/25 06:53:07;;;;;;;1.10;1.00;;;;;;;;;;5088924;27;98543;-80
2023/12/25 06:55:34;;;;;;;1.38;1.00;;;;;;;;;;5086874;27;98141;-80
2023/12/25 06:58:01;;;;;;;5.85;1.15;;;;;;;;;;5086405;27;98825;-80
2023/12/25 07:00:27;;;;;;;8.23;1.83;;;;;;;;;;5085450;27;99066;-80
2023/12/25 07:02:54;;;;;;;5.00;1.35;;;;;;;;;;5087044;27;98215;-80
2023/12/25 07:05:22;;;;;;;4.15;1.35;;;;;;;;;;5086760;27;99443;-81
2023/12/25 07:07:49;;;;;;;3.90;1.48;;;;;;;;;;5086053;27;100217;-80
2023/12/25 07:10:16;;;;;;;5.85;1.23;;;;;;;;;;5086380;27;99043;-80
2023/12/25 07:12:42;;;;;;;5.68;1.77;;;;;;;;;;5086937;27;99240;-80
2023/12/25 07:15:09;;;;;;;10.75;1.30;;;;;;;;;;5088740;27;100243;-80
2023/12/25 07:17:35;;;;;;;12.95;1.63;;;;;;;;;;5073547;27;98520;-80
2023/12/25 07:20:02;;;;;;;7.55;1.38;;;;;;;;;;5072166;27;100462;-81
2023/12/25 07:22:29;;;;;;;1.67;1.15;;;;;;;;;;5072674;27;98245;-80
2023/12/25 07:24:55;;;;;;;5.93;1.25;;;;;;;;;;5073057;27;99437;-81
2023/12/25 07:27:22;;;;;;;1.90;1.20;;;;;;;;;;5071882;27;99958;-80
2023/12/25 07:29:48;;;;;;;5.28;1.40;;;;;;;;;;5073072;27;98253;-80
2023/12/25 07:32:15;;;;;;;5.47;1.40;;;;;;;;;;5072758;27;99891;-80
2023/12/25 07:34:41;;;;;;;12.50;1.92;;;;;;;;;;5071809;27;100307;-81
2023/12/25 07:37:07;;;;;;;5.00;2.17;;;;;;;;;;5075857;27;98359;-80
2023/12/25 07:39:34;;;;;;;6.78;1.52;;;;;;;;;;5072328;27;98828;-80
2023/12/25 07:42:00;;;;;;;8.23;1.58;;;;;;;;;;5071849;27;98250;-80
2023/12/25 07:44:27;;;;;;;7.00;1.70;;;;;;;;;;5072514;27;99571;-80
2023/12/25 07:46:53;;;;;;;5.55;1.35;;;;;;;;;;5071963;27;100108;-80
2023/12/25 07:49:20;;;;;;;9.50;2.33;;;;;;;;;;5071599;27;98214;-79
2023/12/25 07:51:46;;;;;;;4.90;1.63;;;;;;;;;;5072518;27;99344;-80
2023/12/25 07:54:13;;;;;;;6.78;1.70;;;;;;;;;;5071870;27;100291;-80
2023/12/25 07:56:39;;;;;;;4.70;1.42;;;;;;;;;;5071578;27;98392;-80
2023/12/25 07:59:06;;;;;;;5.50;1.50;;;;;;;;;;5075201;27;99566;-80
2023/12/25 08:01:32;;;;;;;3.10;1.45;;;;;;;;;;5072554;27;98248;-81
2023/12/25 08:03:59;;;;;;;3.85;1.35;;;;;;;;;;5071405;27;99301;-81
2023/12/25 08:06:25;;;;;;;10.68;2.70;;;;;;;;;;5071693;27;99216;-81
2023/12/25 08:08:52;;;;;;;13.50;1.70;;;;;;;;;;5072568;27;98107;-81
2023/12/25 08:11:18;;;;;;;2.80;1.23;;;;;;;;;;5070024;27;98681;-81
2023/12/25 08:13:45;;;;;;;11.88;2.75;;;;;;;;;;5071764;27;100240;-80
2023/12/25 08:16:11;;;;;;;4.20;1.63;;;;;;;;;;5071441;27;98238;-81
2023/12/25 08:18:38;;;;;;;10.52;1.98;;;;;;;;;;5072401;27;100060;-81
2023/12/25 08:21:05;;;;;;;14.60;1.63;;;;;;;;;;5074288;27;98294;-81
2023/12/25 08:23:32;;;;;;;11.40;2.05;;;;;;;;;;5071561;27;99384;-81
2023/12/25 08:25:59;;;;;;;3.33;1.60;;;;;;;;;;5071089;27;100029;-81
2023/12/25 08:28:26;;;;;;;4.60;1.25;;;;;;;;;;5071193;27;98202;-81
2023/12/25 08:30:52;;;;;;;6.65;1.48;;;;;;;;;;5070803;27;98364;-81
2023/12/25 08:33:19;;;;;;;4.75;1.23;;;;;;;;;;5070867;27;99518;-81
2023/12/25 08:35:45;;;;;;;8.45;1.60;;;;;;;;;;5071927;27;98211;-81
2023/12/25 08:38:12;;;;;;;5.10;1.48;;;;;;;;;;5070451;27;98559;-81
2023/12/25 08:40:39;;;;;;;5.60;1.33;;;;;;;;;;5074096;27;99063;-82
2023/12/25 08:43:05;;;;;;;3.80;1.30;;;;;;;;;;5070881;27;98756;-80
2023/12/25 08:45:32;;;;;;;11.45;1.92;;;;;;;;;;5070856;27;100150;-81
2023/12/25 08:47:58;;;;;;;5.82;1.60;;;;;;;;;;5071456;27;98156;-81
2023/12/25 08:50:25;;;;;;;8.43;1.48;;;;;;;;;;5071310;27;98443;-81
2023/12/25 08:52:52;;;;;;;2.45;1.35;;;;;;;;;;5070432;27;99044;-81
2023/12/25 08:55:18;;;;;;;3.78;1.50;;;;;;;;;;5071299;27;98210;-80
2023/12/25 08:57:45;;;;;;;8.52;1.45;;;;;;;;;;5071401;27;98301;-81
2023/12/25 09:00:11;;;;;;;10.77;1.70;;;;;;;;;;5070068;27;99831;-81
2023/12/25 09:02:38;;;;;;;2.35;1.38;;;;;;;;;;5075089;27;98238;-81
2023/12/25 09:05:05;;;;;;;8.30;1.80;;;;;;;;;;5070688;27;98982;-82
2023/12/25 09:07:33;;;;;;;2.95;1.40;;;;;;;;;;5070576;27;98282;-81
2023/12/25 09:09:59;;;;;;;5.85;1.48;;;;;;;;;;5070781;27;99340;-81
2023/12/25 09:12:26;;;;;;;6.43;1.38;;;;;;;;;;5070760;27;98961;-81
2023/12/25 09:14:52;;;;;;;6.47;1.58;;;;;;;;;;5070274;27;98253;-81
2023/12/25 09:17:19;;;;;;;3.38;1.60;;;;;;;;;;5071062;27;99327;-81
2023/12/25 09:19:47;;;;;;;9.13;1.27;;;;;;;;;;5070373;27;99998;-81
2023/12/25 09:22:13;;;;;;;5.78;1.40;;;;;;;;;;5070094;27;98258;-81
2023/12/25 09:24:44;;;;;;;10.35;1.55;;;;;;;;;;5074045;27;99287;-81
2023/12/25 09:27:11;;;;;;;3.67;1.30;;;;;;;;;;5070514;27;98154;-80
2023/12/25 09:29:37;;;;;;;6.65;2.33;;;;;;;;;;5070697;27;98644;-81
2023/12/25 09:32:04;;;;;;;5.13;1.67;;;;;;;;;;5071063;27;99900;-81
2023/12/25 09:34:31;;;;;;;2.78;1.10;;;;;;;;;;5070452;27;98237;-81
2023/12/25 09:37:17;;;;;;;4.32;1.20;;;;;;;;;;5070826;27;99980;-81
2023/12/25 09:39:43;;;;;;;5.82;2.33;;;;;;;;;;5070001;27;99195;-81
2023/12/25 09:42:10;;;;;;;5.88;1.63;;;;;;;;;;5071170;27;98286;-81
2023/12/25 09:44:39;;;;;;;4.95;1.42;;;;;;;;;;5078164;27;98955;-81
2023/12/25 09:47:06;;;;;;;9.82;1.67;;;;;;;;;;5074784;27;100055;-81
2023/12/25 09:49:38;;;;;;;6.00;1.40;;;;;;;;;;5069883;27;98180;-81
2023/12/25 09:52:05;;;;;;;4.43;1.30;;;;;;;;;;5070329;27;99760;-81
2023/12/25 09:54:31;;;;;;;9.68;1.30;;;;;;;;;;5070277;27;98214;-81
2023/12/25 09:56:58;;;;;;;9.98;1.23;;;;;;;;;;5069567;27;98422;-80
2023/12/25 09:59:27;;;;;;;1.50;0.90;;;;;;;;;;5071787;27;98842;-81
2023/12/25 10:01:55;;;;;;;3.10;1.60;;;;;;;;;;5071572;27;98273;-80
2023/12/25 10:04:22;;;;;;;6.32;1.30;;;;;;;;;;5074884;27;99227;-81
2023/12/25 10:06:49;;;;;;;0.88;0.88;;;;;;;;;;5070823;27;99984;-81
2023/12/25 10:09:16;;;;;;;9.32;1.92;;;;;;;;;;5074602;27;98225;-82
2023/12/25 10:11:42;;;;;;;2.35;1.08;;;;;;;;;;5069202;27;99519;-81
2023/12/25 10:14:09;;;;;;;4.72;1.52;;;;;;;;;;5070143;27;98584;-81
2023/12/25 10:16:35;;;;;;;2.95;1.95;;;;;;;;;;5068936;27;98447;-81
2023/12/25 10:19:02;;;;;;;7.68;1.48;;;;;;;;;;5069240;27;100190;-81
2023/12/25 10:21:40;;;;;;;2.53;1.13;;;;;;;;;;5069218;27;98198;-82
2023/12/25 10:24:15;;;;;;;3.72;1.83;;;;;;;;;;5068659;27;99361;-82
2023/12/25 10:26:45;;;;;;;4.53;1.17;;;;;;;;;;5069095;27;100267;-81
2023/12/25 10:29:12;;;;;;;6.72;1.35;;;;;;;;;;5072635;27;98218;-81
2023/12/25 10:31:39;;;;;;;3.38;1.80;;;;;;;;;;5068593;27;100322;-80
2023/12/25 10:34:05;;;;;;;2.10;1.60;;;;;;;;;;5069374;27;98202;-82
2023/12/25 10:36:32;;;;;;;3.70;1.00;;;;;;;;;;5069246;27;99659;-80
2023/12/25 10:39:00;;;;;;;3.28;1.45;;;;;;;;;;5068211;27;98948;-81
2023/12/25 10:41:28;;;;;;;4.57;1.70;;;;;;;;;;5068603;27;98047;-80
2023/12/25 10:43:56;;;;;;;5.80;1.45;;;;;;;;;;5069354;27;98818;-81
2023/12/25 10:46:23;;;;;;;2.83;1.02;;;;;;;;;;5068668;27;100145;-81
2023/12/25 10:48:51;;;;;;;1.55;1.10;;;;;;;;;;5069596;27;98237;-81
2023/12/25 10:51:20;;;;;;;5.60;1.70;;;;;;;;;;5072144;27;99545;-80
2023/12/25 10:53:48;;;;;;;5.75;1.10;;;;;;;;;;5073136;27;98363;-81
2023/12/25 10:56:15;;;;;;;1.60;1.40;;;;;;;;;;5070920;27;98545;-80
2023/12/25 10:58:42;;;;;;;2.58;1.40;;;;;;;;;;5071562;27;98941;-81
2023/12/25 11:01:08;;;;;;;3.47;1.25;;;;;;;;;;5072147;27;98368;-81
2023/12/25 11:03:35;;;;;;;2.33;0.90;;;;;;;;;;5072902;27;99553;-81
2023/12/25 11:06:03;;;;;;;2.33;1.38;;;;;;;;;;5072083;27;99977;-81
2023/12/25 11:08:30;;;;;;;3.42;0.88;;;;;;;;;;5072139;27;98363;-81
2023/12/25 11:11:04;;;;;;;1.60;1.10;;;;;;;;;;5071758;27;99545;-79
2023/12/25 11:13:30;;;;;;;0.95;0.80;;;;;;;;;;5074968;27;100033;-80
2023/12/25 11:15:57;;;;;;;2.40;1.05;;;;;;;;;;5072148;27;99767;-81
2023/12/25 11:18:23;;;;;;;1.52;1.00;;;;;;;;;;5072233;27;100235;-80
2023/12/25 11:21:00;;;;;;;7.57;1.75;;;;;;;;;;5071921;27;98543;-80
2023/12/25 11:23:29;;;;;;;3.67;1.38;;;;;;;;;;5072028;27;98570;-80
2023/12/25 11:25:58;;;;;;;3.90;1.08;;;;;;;;;;5070623;27;100285;-80
2023/12/25 11:28:25;;;;;;;6.60;1.45;;;;;;;;;;5072116;27;98228;-81
2023/12/25 11:30:51;;;;;;;6.53;1.73;;;;;;;;;;5072587;27;99931;-80
2023/12/25 11:33:18;;;;;;;4.35;1.45;;;;;;;;;;5071734;27;99909;-81
2023/12/25 11:35:45;;;;;;;2.53;1.13;;;;;;;;;;5077272;27;98234;-80
2023/12/25 11:38:18;;;;;;;2.42;1.10;;;;;;;;;;5073401;27;99455;-80
2023/12/25 11:40:45;;;;;;;3.17;1.20;;;;;;;;;;5073486;27;98230;-80
2023/12/25 11:43:16;;;;;;;4.57;1.33;;;;;;;;;;5073909;27;98664;-80
2023/12/25 11:45:43;;;;;;;2.85;1.20;;;;;;;;;;5081223;27;98163;-79
2023/12/25 11:48:11;;;;;;;2.58;1.30;;;;;;;;;;5080378;27;98191;-79
2023/12/25 11:50:41;;;;;;;2.22;1.10;;;;;;;;;;5079213;27;99370;-80
2023/12/25 11:53:07;;;;;;;1.10;0.80;;;;;;;;;;5074305;27;100025;-80
2023/12/25 11:55:35;;;;;;;2.83;1.20;;;;;;;;;;5073219;27;98237;-80
2023/12/25 11:58:02;;;;;;;3.08;1.00;;;;;;;;;;5077711;27;98413;-80
2023/12/25 12:00:31;;;;;;;2.35;1.00;;;;;;;;;;5072049;27;98261;-79
2023/12/25 12:02:58;;;;;;;3.33;1.83;;;;;;;;;;5074403;27;100093;-80
2023/12/25 12:05:25;;;;;;;9.57;1.33;;;;;;;;;;5071157;27;98995;-79
2023/12/25 12:07:51;;;;;;;2.83;1.20;;;;;;;;;;5071877;27;98332;-80
2023/12/25 12:10:18;;;;;;;1.77;1.02;;;;;;;;;;5070967;27;99258;-80
2023/12/25 12:12:44;;;;;;;2.88;1.10;;;;;;;;;;5071389;27;99056;-80
2023/12/25 12:15:11;;;;;;;3.40;1.33;;;;;;;;;;5071517;27;99159;-80
2023/12/25 12:17:38;;;;;;;5.03;1.40;;;;;;;;;;5071011;27;99328;-80
2023/12/25 12:20:05;;;;;;;3.47;0.98;;;;;;;;;;5074372;27;100017;-79
2023/12/25 12:22:32;;;;;;;5.07;1.45;;;;;;;;;;5072110;27;99296;-80
2023/12/25 12:25:15;;;;;;;2.47;0.90;;;;;;;;;;5071124;27;100116;-79
2023/12/25 12:27:41;;;;;;;1.63;1.10;;;;;;;;;;5070902;27;98279;-80
2023/12/25 12:30:08;;;;;;;4.85;0.98;;;;;;;;;;5070584;27;99441;-80
2023/12/25 12:32:36;;;;;;;5.50;1.42;;;;;;;;;;5070790;27;98636;-80
2023/12/25 12:35:03;;;;;;;3.15;1.30;;;;;;;;;;5070559;27;98467;-79
2023/12/25 12:37:30;;;;;;;3.13;1.02;;;;;;;;;;5070792;27;98811;-80
2023/12/25 12:40:05;;;;;;;1.60;0.80;;;;;;;;;;5073619;27;99392;-79
2023/12/25 12:42:32;;;;;;;7.00;0.90;;;;;;;;;;5071489;27;99701;-80
2023/12/25 12:45:00;;;;;;;1.58;0.90;;;;;;;;;;5069931;27;99995;-80
2023/12/25 12:47:26;;;;;;;5.32;1.45;;;;;;;;;;5071701;27;98282;-80
2023/12/25 12:49:53;;;;;;;1.70;1.00;;;;;;;;;;5070996;27;99355;-80
2023/12/25 12:52:19;;;;;;;1.58;0.98;;;;;;;;;;5070251;27;100024;-80
2023/12/25 12:54:46;;;;;;;2.45;1.20;;;;;;;;;;5070738;27;98924;-81
2023/12/25 12:57:13;;;;;;;2.45;1.25;;;;;;;;;;5070404;27;99622;-79
2023/12/25 12:59:40;;;;;;;3.25;1.20;;;;;;;;;;5070341;27;99981;-81
2023/12/25 13:02:07;;;;;;;3.63;1.10;;;;;;;;;;5074143;27;98172;-80
2023/12/25 13:04:34;;;;;;;2.60;1.20;;;;;;;;;;5070505;27;100435;-79
2023/12/25 13:07:00;;;;;;;4.18;1.02;;;;;;;;;;5070089;27;98222;-80
2023/12/25 13:09:27;;;;;;;3.03;1.67;;;;;;;;;;5069834;27;98779;-80
2023/12/25 13:11:53;;;;;;;5.97;1.65;;;;;;;;;;5069892;27;100386;-79
2023/12/25 13:14:20;;;;;;;2.28;1.15;;;;;;;;;;5070032;27;98184;-79
2023/12/25 13:16:46;;;;;;;6.35;1.52;;;;;;;;;;5070471;27;98658;-80
2023/12/25 13:19:13;;;;;;;8.43;1.23;;;;;;;;;;5069097;27;99907;-79
2023/12/25 13:21:40;;;;;;;2.30;1.80;;;;;;;;;;5070652;27;98182;-78
2023/12/25 13:24:07;;;;;;;6.22;1.13;;;;;;;;;;5073653;27;99386;-79
2023/12/25 13:26:33;;;;;;;5.93;1.30;;;;;;;;;;5069826;27;98246;-79
2023/12/25 13:29:00;;;;;;;4.72;1.27;;;;;;;;;;5070378;27;99359;-79
2023/12/25 13:31:26;;;;;;;1.75;1.00;;;;;;;;;;5070211;27;99580;-80
2023/12/25 13:33:53;;;;;;;2.65;1.27;;;;;;;;;;5069962;27;98769;-79
2023/12/25 13:36:20;;;;;;;5.20;1.40;;;;;;;;;;5070219;27;99984;-80
2023/12/25 13:38:47;;;;;;;4.40;1.38;;;;;;;;;;5070344;27;100231;-79
2023/12/25 13:41:13;;;;;;;5.95;1.27;;;;;;;;;;5069533;27;98207;-79
2023/12/25 13:43:40;;;;;;;6.55;1.40;;;;;;;;;;5070822;27;99615;-80
2023/12/25 13:46:06;;;;;;;5.28;1.27;;;;;;;;;;5073115;27;99975;-79
2023/12/25 13:48:33;;;;;;;3.17;1.35;;;;;;;;;;5070003;27;98823;-79
2023/12/25 13:51:00;;;;;;;3.10;1.52;;;;;;;;;;5076689;27;100212;-79
2023/12/25 13:53:27;;;;;;;6.82;2.20;;;;;;;;;;5070611;27;98195;-80
2023/12/25 13:55:54;;;;;;;3.15;1.05;;;;;;;;;;5070344;27;99285;-79
2023/12/25 13:58:20;;;;;;;6.38;2.50;;;;;;;;;;5069838;27;100190;-79
2023/12/25 14:00:47;;;;;;;3.88;1.90;;;;;;;;;;5070234;27;98014;-79
2023/12/25 14:03:13;;;;;;;4.43;1.45;;;;;;;;;;5069417;27;99717;-79
2023/12/25 14:05:40;;;;;;;4.00;1.90;;;;;;;;;;5069772;27;100262;-80
2023/12/25 14:08:07;;;;;;;2.70;1.60;;;;;;;;;;5072238;27;98255;-78
2023/12/25 14:10:34;;;;;;;4.10;1.38;;;;;;;;;;5074221;27;100124;-77
2023/12/25 14:13:00;;;;;;;6.15;3.42;;;;;;;;;;5073093;27;98013;-78
2023/12/25 14:15:27;;;;;;;13.43;9.82;;;;;;;;;;5070431;27;99921;-78
2023/12/25 14:17:54;;;;;;;6.68;2.58;;;;;;;;;;5070162;27;99162;-78
2023/12/25 14:20:22;;;;;;;14.20;7.22;;;;;;;;;;5069509;27;98262;-79
2023/12/25 14:22:50;;;;;;;7.25;3.33;;;;;;;;;;5069489;27;99282;-77
2023/12/25 14:25:16;;;;;;;7.72;3.35;;;;;;;;;;5069655;27;100036;-78
2023/12/25 14:27:43;;;;;;;7.15;1.90;;;;;;;;;;5073165;27;98233;-78
2023/12/25 14:30:09;;;;;;;12.45;4.60;;;;;;;;;;5075711;27;99375;-78
2023/12/25 14:32:36;;;;;;;15.73;4.97;;;;;;;;;;5072975;27;98219;-79
2023/12/25 14:35:03;;;;;;;10.18;5.00;;;;;;;;;;5072766;27;98501;-79
2023/12/25 14:37:30;;;;;;;3.63;2.63;;;;;;;;;;5072468;27;100187;-78
2023/12/25 14:39:56;;;;;;;3.40;2.58;;;;;;;;;;5072965;27;98274;-78
2023/12/25 14:42:23;;;;;;;7.68;4.00;;;;;;;;;;5072875;27;98646;-79
2023/12/25 14:44:49;;;;;;;11.80;6.05;;;;;;;;;;5072609;27;99887;-79
2023/12/25 14:47:16;;;;;;;8.32;2.70;;;;;;;;;;5072862;27;99212;-79
2023/12/25 14:49:42;;;;;;;4.85;1.75;;;;;;;;;;5076174;27;99603;-79
2023/12/25 14:52:09;;;;;;;3.50;2.00;;;;;;;;;;5072137;27;98214;-78
2023/12/25 14:54:35;;;;;;;4.28;1.67;;;;;;;;;;5073017;27;99395;-79
2023/12/25 14:57:03;;;;;;;6.03;2.38;;;;;;;;;;5071853;27;98941;-79
2023/12/25 14:59:30;;;;;;;10.55;2.20;;;;;;;;;;5072651;27;98298;-79
2023/12/25 15:01:57;;;;;;;6.20;2.28;;;;;;;;;;5072585;27;99828;-79
2023/12/25 15:04:24;;;;;;;7.97;4.82;;;;;;;;;;5071963;27;99827;-79
2023/12/25 15:06:50;;;;;;;3.00;1.77;;;;;;;;;;5072560;27;98265;-78
2023/12/25 15:09:17;;;;;;;1.73;1.60;;;;;;;;;;5072701;27;99848;-79
2023/12/25 15:11:43;;;;;;;5.30;2.45;;;;;;;;;;5074617;27;99877;-79
2023/12/25 15:14:10;;;;;;;7.57;3.40;;;;;;;;;;5072841;27;99608;-79
2023/12/25 15:16:37;;;;;;;2.53;1.98;;;;;;;;;;5071804;27;101218;-79
2023/12/25 15:19:05;;;;;;;3.90;2.60;;;;;;;;;;5071763;27;98226;-79
2023/12/25 15:21:32;;;;;;;37.25;24.42;;;;;;;;;;5072667;27;99593;-79
2023/12/25 15:23:58;;;;;;;12.93;7.32;;;;;;;;;;5071671;27;99969;-79
2023/12/25 15:26:25;;;;;;;7.32;4.28;;;;;;;;;;5071062;27;98274;-79
2023/12/25 15:28:51;;;;;;;12.57;4.47;;;;;;;;;;5072277;27;99338;-79
2023/12/25 15:31:18;;;;;;;5.05;4.03;;;;;;;;;;5071894;27;100337;-79
2023/12/25 15:33:44;;;;;;;3.83;3.33;;;;;;;;;;5074858;27;98245;-79
2023/12/25 15:36:13;;;;;;;6.85;3.80;;;;;;;;;;5071511;27;99165;-80
2023/12/25 15:38:39;;;;;;;4.53;2.53;;;;;;;;;;5071991;27;98222;-79
2023/12/25 15:41:06;;;;;;;11.05;3.58;;;;;;;;;;5071894;27;99616;-80
2023/12/25 15:43:33;;;;;;;6.53;2.55;;;;;;;;;;5071778;27;99909;-80
2023/12/25 15:46:01;;;;;;;9.27;3.90;;;;;;;;;;5071412;27;98182;-80
2023/12/25 15:48:29;;;;;;;3.85;2.47;;;;;;;;;;5072069;27;100134;-80
2023/12/25 15:50:56;;;;;;;4.05;2.70;;;;;;;;;;5071322;27;98802;-79
2023/12/25 15:53:23;;;;;;;5.38;2.70;;;;;;;;;;5071672;27;98634;-79
2023/12/25 15:55:49;;;;;;;4.72;3.05;;;;;;;;;;5074625;27;98565;-79
2023/12/25 15:58:15;;;;;;;3.88;2.95;;;;;;;;;;5071799;27;98030;-79
2023/12/25 16:00:42;;;;;;;4.68;2.45;;;;;;;;;;5071459;27;99433;-79
2023/12/25 16:03:08;;;;;;;7.93;3.42;;;;;;;;;;5071742;27;99953;-79
2023/12/25 16:05:36;;;;;;;4.68;2.45;;;;;;;;;;5071873;27;98259;-79
2023/12/25 16:08:03;;;;;;;5.68;2.33;;;;;;;;;;5070959;27;98360;-79
2023/12/25 16:10:30;;;;;;;6.18;2.67;;;;;;;;;;5070629;27;100048;-79
2023/12/25 16:12:56;;;;;;;8.55;2.42;;;;;;;;;;5070846;27;98248;-80
2023/12/25 16:15:23;;;;;;;9.65;2.15;;;;;;;;;;5071241;27;98423;-80
2023/12/25 16:17:50;;;;;;;5.80;2.50;;;;;;;;;;5074782;27;99937;-79
2023/12/25 16:20:17;;;;;;;8.98;2.92;;;;;;;;;;5070482;27;98630;-79
2023/12/25 16:22:43;;;;;;;11.50;3.78;;;;;;;;;;5070694;27;99941;-80